sensor_id;sensor_type;location;lat;lon;timestamp;P1;durP1;ratioP1;P2;durP2;ratioP2
26435;SDS011;15351;52.408;16.826;2024-01-07T00:00:13;8.00;;;5.40;;
26435;SDS011;15351;52.408;16.826;2024-01-07T00:03:03;8.70;;;5.70;;
26435;SDS011;15351;52.408;16.826;2024-01-07T00:05:31;7.70;;;5.00;;
26435;SDS011;15351;52.408;16.826;2024-01-07T00:07:59;9.00;;;5.50;;
26435;SDS011;15351;52.408;16.826;2024-01-07T00:10:29;9.40;;;5.60;;
26435;SDS011;15351;52.408;16.826;2024-01-07T00:12:57;11.00;;;6.10;;
26435;SDS011;15351;52.408;16.826;2024-01-07T00:15:24;8.90;;;5.50;;
26435;SDS011;15351;52.408;16.826;2024-01-07T00:17:53;8.80;;;5.60;;
26435;SDS011;15351;52.408;16.826;2024-01-07T00:20:21;9.50;;;5.60;;
26435;SDS011;15351;52.408;16.826;2024-01-07T00:22:49;8.20;;;5.40;;
26435;SDS011;15351;52.408;16.826;2024-01-07T00:25:16;7.50;;;5.20;;
26435;SDS011;15351;52.408;16.826;2024-01-07T00:27:44;8.10;;;5.10;;
26435;SDS011;15351;52.408;16.826;2024-01-07T00:30:13;8.20;;;5.30;;
26435;SDS011;15351;52.408;16.826;2024-01-07T00:32:40;7.30;;;5.00;;
26435;SDS011;15351;52.408;16.826;2024-01-07T00:35:08;8.10;;;5.20;;
26435;SDS011;15351;52.408;16.826;2024-01-07T00:37:36;7.40;;;5.10;;
26435;SDS011;15351;52.408;16.826;2024-01-07T00:40:02;7.90;;;4.90;;
26435;SDS011;15351;52.408;16.826;2024-01-07T00:42:30;7.10;;;5.00;;
26435;SDS011;15351;52.408;16.826;2024-01-07T00:44:57;7.50;;;4.70;;
26435;SDS011;15351;52.408;16.826;2024-01-07T00:47:24;8.50;;;5.00;;
26435;SDS011;15351;52.408;16.826;2024-01-07T00:49:51;6.90;;;4.70;;
26435;SDS011;15351;52.408;16.826;2024-01-07T00:52:19;7.80;;;4.50;;
26435;SDS011;15351;52.408;16.826;2024-01-07T00:54:48;7.50;;;4.50;;
26435;SDS011;15351;52.408;16.826;2024-01-07T00:57:15;7.50;;;4.40;;
26435;SDS011;15351;52.408;16.826;2024-01-07T00:59:43;6.20;;;4.10;;
26435;SDS011;15351;52.408;16.826;2024-01-07T01:02:10;6.10;;;4.10;;
26435;SDS011;15351;52.408;16.826;2024-01-07T01:04:40;6.00;;;3.70;;
26435;SDS011;15351;52.408;16.826;2024-01-07T01:07:08;6.50;;;3.90;;
26435;SDS011;15351;52.408;16.826;2024-01-07T01:09:36;6.20;;;4.00;;
26435;SDS011;15351;52.408;16.826;2024-01-07T01:12:05;5.60;;;3.90;;
26435;SDS011;15351;52.408;16.826;2024-01-07T01:14:32;5.80;;;3.70;;
26435;SDS011;15351;52.408;16.826;2024-01-07T01:17:00;6.40;;;4.10;;
26435;SDS011;15351;52.408;16.826;2024-01-07T01:19:29;6.10;;;4.00;;
26435;SDS011;15351;52.408;16.826;2024-01-07T01:21:56;8.30;;;4.10;;
26435;SDS011;15351;52.408;16.826;2024-01-07T01:24:24;6.60;;;4.20;;
26435;SDS011;15351;52.408;16.826;2024-01-07T01:26:51;6.40;;;4.30;;
26435;SDS011;15351;52.408;16.826;2024-01-07T01:29:30;5.30;;;4.00;;
26435;SDS011;15351;52.408;16.826;2024-01-07T01:31:59;7.00;;;4.50;;
26435;SDS011;15351;52.408;16.826;2024-01-07T01:34:29;7.60;;;4.60;;
26435;SDS011;15351;52.408;16.826;2024-01-07T01:36:57;7.00;;;4.10;;
26435;SDS011;15351;52.408;16.826;2024-01-07T01:39:25;7.00;;;4.80;;
26435;SDS011;15351;52.408;16.826;2024-01-07T01:41:52;5.90;;;4.20;;
26435;SDS011;15351;52.408;16.826;2024-01-07T01:44:21;7.10;;;4.60;;
26435;SDS011;15351;52.408;16.826;2024-01-07T01:46:50;7.70;;;4.80;;
26435;SDS011;15351;52.408;16.826;2024-01-07T01:49:17;6.80;;;4.60;;
26435;SDS011;15351;52.408;16.826;2024-01-07T01:51:44;6.70;;;4.30;;
26435;SDS011;15351;52.408;16.826;2024-01-07T01:54:12;7.00;;;4.60;;
26435;SDS011;15351;52.408;16.826;2024-01-07T01:56:39;7.70;;;4.70;;
26435;SDS011;15351;52.408;16.826;2024-01-07T01:59:09;7.90;;;4.80;;
26435;SDS011;15351;52.408;16.826;2024-01-07T02:01:38;7.20;;;4.70;;
26435;SDS011;15351;52.408;16.826;2024-01-07T02:04:07;8.00;;;4.80;;
26435;SDS011;15351;52.408;16.826;2024-01-07T02:06:36;6.60;;;4.60;;
26435;SDS011;15351;52.408;16.826;2024-01-07T02:09:05;7.30;;;4.70;;
26435;SDS011;15351;52.408;16.826;2024-01-07T02:11:33;6.60;;;4.80;;
26435;SDS011;15351;52.408;16.826;2024-01-07T02:14:01;6.70;;;4.40;;
26435;SDS011;15351;52.408;16.826;2024-01-07T02:16:29;8.00;;;4.90;;
26435;SDS011;15351;52.408;16.826;2024-01-07T02:18:57;8.60;;;4.70;;
26435;SDS011;15351;52.408;16.826;2024-01-07T02:21:25;6.90;;;4.60;;
26435;SDS011;15351;52.408;16.826;2024-01-07T02:23:52;6.30;;;4.50;;
26435;SDS011;15351;52.408;16.826;2024-01-07T02:26:19;6.70;;;4.50;;
26435;SDS011;15351;52.408;16.826;2024-01-07T02:28:46;5.50;;;4.00;;
26435;SDS011;15351;52.408;16.826;2024-01-07T02:31:14;6.10;;;3.90;;
26435;SDS011;15351;52.408;16.826;2024-01-07T02:33:41;6.70;;;4.30;;
26435;SDS011;15351;52.408;16.826;2024-01-07T02:36:09;5.80;;;3.90;;
26435;SDS011;15351;52.408;16.826;2024-01-07T02:38:38;5.00;;;3.60;;
26435;SDS011;15351;52.408;16.826;2024-01-07T02:41:06;5.40;;;3.50;;
26435;SDS011;15351;52.408;16.826;2024-01-07T02:43:33;5.60;;;3.90;;
26435;SDS011;15351;52.408;16.826;2024-01-07T02:46:01;6.90;;;3.80;;
26435;SDS011;15351;52.408;16.826;2024-01-07T02:48:29;5.60;;;3.50;;
26435;SDS011;15351;52.408;16.826;2024-01-07T02:50:56;6.30;;;3.70;;
26435;SDS011;15351;52.408;16.826;2024-01-07T02:53:25;5.00;;;3.20;;
26435;SDS011;15351;52.408;16.826;2024-01-07T02:55:52;4.40;;;3.20;;
26435;SDS011;15351;52.408;16.826;2024-01-07T02:58:18;4.20;;;3.00;;
26435;SDS011;15351;52.408;16.826;2024-01-07T03:00:46;4.90;;;3.30;;
26435;SDS011;15351;52.408;16.826;2024-01-07T03:03:13;5.20;;;3.80;;
26435;SDS011;15351;52.408;16.826;2024-01-07T03:05:41;5.00;;;3.70;;
26435;SDS011;15351;52.408;16.826;2024-01-07T03:08:08;4.90;;;3.50;;
26435;SDS011;15351;52.408;16.826;2024-01-07T03:10:35;5.40;;;4.00;;
26435;SDS011;15351;52.408;16.826;2024-01-07T03:13:03;6.90;;;3.80;;
26435;SDS011;15351;52.408;16.826;2024-01-07T03:15:34;5.30;;;3.70;;
26435;SDS011;15351;52.408;16.826;2024-01-07T03:18:00;5.40;;;3.90;;
26435;SDS011;15351;52.408;16.826;2024-01-07T03:20:28;5.00;;;4.00;;
26435;SDS011;15351;52.408;16.826;2024-01-07T03:22:55;4.80;;;3.70;;
26435;SDS011;15351;52.408;16.826;2024-01-07T03:25:22;5.00;;;3.70;;
26435;SDS011;15351;52.408;16.826;2024-01-07T03:27:50;4.90;;;3.70;;
26435;SDS011;15351;52.408;16.826;2024-01-07T03:30:16;4.90;;;3.70;;
26435;SDS011;15351;52.408;16.826;2024-01-07T03:32:45;5.30;;;3.80;;
26435;SDS011;15351;52.408;16.826;2024-01-07T03:35:14;4.70;;;3.60;;
26435;SDS011;15351;52.408;16.826;2024-01-07T03:37:45;5.20;;;3.80;;
26435;SDS011;15351;52.408;16.826;2024-01-07T03:40:12;4.50;;;3.60;;
26435;SDS011;15351;52.408;16.826;2024-01-07T03:42:39;5.30;;;3.80;;
26435;SDS011;15351;52.408;16.826;2024-01-07T03:45:07;5.10;;;3.90;;
26435;SDS011;15351;52.408;16.826;2024-01-07T03:47:35;6.10;;;3.80;;
26435;SDS011;15351;52.408;16.826;2024-01-07T03:50:03;5.70;;;3.90;;
26435;SDS011;15351;52.408;16.826;2024-01-07T03:52:31;5.40;;;3.70;;
26435;SDS011;15351;52.408;16.826;2024-01-07T03:55:02;5.10;;;3.80;;
26435;SDS011;15351;52.408;16.826;2024-01-07T03:57:29;4.40;;;3.70;;
26435;SDS011;15351;52.408;16.826;2024-01-07T04:00:01;5.90;;;3.80;;
26435;SDS011;15351;52.408;16.826;2024-01-07T04:02:48;5.50;;;4.00;;
26435;SDS011;15351;52.408;16.826;2024-01-07T04:05:15;5.30;;;3.70;;
26435;SDS011;15351;52.408;16.826;2024-01-07T04:07:44;5.00;;;4.00;;
26435;SDS011;15351;52.408;16.826;2024-01-07T04:10:13;5.60;;;4.20;;
26435;SDS011;15351;52.408;16.826;2024-01-07T04:16:10;5.80;;;4.10;;
26435;SDS011;15351;52.408;16.826;2024-01-07T04:18:57;5.70;;;4.00;;
26435;SDS011;15351;52.408;16.826;2024-01-07T04:21:31;6.50;;;4.20;;
26435;SDS011;15351;52.408;16.826;2024-01-07T04:24:20;5.40;;;3.90;;
26435;SDS011;15351;52.408;16.826;2024-01-07T04:27:14;6.70;;;4.20;;
26435;SDS011;15351;52.408;16.826;2024-01-07T04:29:44;5.90;;;4.10;;
26435;SDS011;15351;52.408;16.826;2024-01-07T04:32:28;4.80;;;3.70;;
26435;SDS011;15351;52.408;16.826;2024-01-07T04:34:59;5.00;;;3.60;;
26435;SDS011;15351;52.408;16.826;2024-01-07T04:38:08;3.90;;;3.40;;
26435;SDS011;15351;52.408;16.826;2024-01-07T04:40:44;5.10;;;4.00;;
26435;SDS011;15351;52.408;16.826;2024-01-07T04:43:19;4.80;;;3.70;;
26435;SDS011;15351;52.408;16.826;2024-01-07T04:49:02;5.60;;;3.70;;
26435;SDS011;15351;52.408;16.826;2024-01-07T04:51:40;4.90;;;3.50;;
26435;SDS011;15351;52.408;16.826;2024-01-07T04:54:08;5.10;;;3.90;;
26435;SDS011;15351;52.408;16.826;2024-01-07T04:56:37;4.80;;;3.50;;
26435;SDS011;15351;52.408;16.826;2024-01-07T04:59:09;4.50;;;3.50;;
26435;SDS011;15351;52.408;16.826;2024-01-07T05:01:46;4.60;;;3.60;;
26435;SDS011;15351;52.408;16.826;2024-01-07T05:04:24;4.90;;;3.80;;
26435;SDS011;15351;52.408;16.826;2024-01-07T05:07:08;5.60;;;4.10;;
26435;SDS011;15351;52.408;16.826;2024-01-07T05:09:46;5.20;;;3.90;;
26435;SDS011;15351;52.408;16.826;2024-01-07T05:12:17;5.10;;;4.10;;
26435;SDS011;15351;52.408;16.826;2024-01-07T05:14:57;6.10;;;4.70;;
26435;SDS011;15351;52.408;16.826;2024-01-07T05:17:28;6.50;;;4.60;;
26435;SDS011;15351;52.408;16.826;2024-01-07T05:20:00;6.00;;;4.70;;
26435;SDS011;15351;52.408;16.826;2024-01-07T05:22:52;6.80;;;5.20;;
26435;SDS011;15351;52.408;16.826;2024-01-07T05:25:32;8.90;;;5.60;;
26435;SDS011;15351;52.408;16.826;2024-01-07T05:28:04;9.80;;;5.50;;
26435;SDS011;15351;52.408;16.826;2024-01-07T05:30:36;7.80;;;5.20;;
26435;SDS011;15351;52.408;16.826;2024-01-07T05:33:08;6.80;;;4.60;;
26435;SDS011;15351;52.408;16.826;2024-01-07T05:35:50;6.00;;;4.40;;
26435;SDS011;15351;52.408;16.826;2024-01-07T05:38:35;7.00;;;5.00;;
26435;SDS011;15351;52.408;16.826;2024-01-07T05:41:42;6.30;;;4.70;;
26435;SDS011;15351;52.408;16.826;2024-01-07T05:44:31;6.40;;;5.00;;
26435;SDS011;15351;52.408;16.826;2024-01-07T05:47:21;6.10;;;4.80;;
26435;SDS011;15351;52.408;16.826;2024-01-07T05:49:48;6.20;;;4.90;;
26435;SDS011;15351;52.408;16.826;2024-01-07T05:52:55;6.80;;;5.30;;
26435;SDS011;15351;52.408;16.826;2024-01-07T05:55:26;7.90;;;5.30;;
26435;SDS011;15351;52.408;16.826;2024-01-07T05:58:01;7.90;;;5.30;;
26435;SDS011;15351;52.408;16.826;2024-01-07T06:00:50;8.70;;;5.10;;
26435;SDS011;15351;52.408;16.826;2024-01-07T06:03:28;6.60;;;4.80;;
26435;SDS011;15351;52.408;16.826;2024-01-07T06:06:21;7.50;;;5.60;;
26435;SDS011;15351;52.408;16.826;2024-01-07T06:11:53;7.20;;;5.60;;
26435;SDS011;15351;52.408;16.826;2024-01-07T06:14:50;7.90;;;5.60;;
26435;SDS011;15351;52.408;16.826;2024-01-07T06:17:36;9.70;;;5.70;;
26435;SDS011;15351;52.408;16.826;2024-01-07T06:20:09;8.80;;;6.20;;
26435;SDS011;15351;52.408;16.826;2024-01-07T06:22:40;9.20;;;6.40;;
26435;SDS011;15351;52.408;16.826;2024-01-07T06:25:33;9.00;;;6.60;;
26435;SDS011;15351;52.408;16.826;2024-01-07T06:28:04;9.70;;;6.10;;
26435;SDS011;15351;52.408;16.826;2024-01-07T06:30:44;9.50;;;6.00;;
26435;SDS011;15351;52.408;16.826;2024-01-07T06:33:36;8.90;;;5.60;;
26435;SDS011;15351;52.408;16.826;2024-01-07T06:36:15;8.60;;;6.30;;
26435;SDS011;15351;52.408;16.826;2024-01-07T06:39:18;9.00;;;6.60;;
26435;SDS011;15351;52.408;16.826;2024-01-07T06:41:55;10.20;;;6.60;;
26435;SDS011;15351;52.408;16.826;2024-01-07T06:48:00;11.20;;;7.30;;
26435;SDS011;15351;52.408;16.826;2024-01-07T06:50:59;12.40;;;8.20;;
26435;SDS011;15351;52.408;16.826;2024-01-07T06:53:35;11.80;;;8.10;;
26435;SDS011;15351;52.408;16.826;2024-01-07T06:56:09;10.80;;;7.50;;
26435;SDS011;15351;52.408;16.826;2024-01-07T06:58:43;12.10;;;8.00;;
26435;SDS011;15351;52.408;16.826;2024-01-07T07:01:33;12.10;;;7.40;;
26435;SDS011;15351;52.408;16.826;2024-01-07T07:04:10;11.90;;;7.30;;
26435;SDS011;15351;52.408;16.826;2024-01-07T07:06:44;10.90;;;7.40;;
26435;SDS011;15351;52.408;16.826;2024-01-07T07:09:15;10.10;;;7.40;;
26435;SDS011;15351;52.408;16.826;2024-01-07T07:11:46;9.70;;;6.90;;
26435;SDS011;15351;52.408;16.826;2024-01-07T07:14:17;10.70;;;7.30;;
26435;SDS011;15351;52.408;16.826;2024-01-07T07:16:57;9.80;;;7.20;;
26435;SDS011;15351;52.408;16.826;2024-01-07T07:19:30;11.30;;;7.70;;
26435;SDS011;15351;52.408;16.826;2024-01-07T07:22:00;11.60;;;8.10;;
26435;SDS011;15351;52.408;16.826;2024-01-07T07:24:51;10.40;;;7.20;;
26435;SDS011;15351;52.408;16.826;2024-01-07T07:30:12;11.50;;;6.80;;
26435;SDS011;15351;52.408;16.826;2024-01-07T07:32:51;10.10;;;6.40;;
26435;SDS011;15351;52.408;16.826;2024-01-07T07:35:19;11.10;;;7.50;;
26435;SDS011;15351;52.408;16.826;2024-01-07T07:37:48;11.60;;;8.00;;
26435;SDS011;15351;52.408;16.826;2024-01-07T07:40:17;11.30;;;7.70;;
26435;SDS011;15351;52.408;16.826;2024-01-07T07:42:51;11.30;;;8.10;;
26435;SDS011;15351;52.408;16.826;2024-01-07T07:45:21;11.70;;;8.10;;
26435;SDS011;15351;52.408;16.826;2024-01-07T07:48:13;10.80;;;8.00;;
26435;SDS011;15351;52.408;16.826;2024-01-07T07:50:45;12.00;;;8.20;;
26435;SDS011;15351;52.408;16.826;2024-01-07T07:53:12;11.70;;;7.50;;
26435;SDS011;15351;52.408;16.826;2024-01-07T07:55:40;11.80;;;7.50;;
26435;SDS011;15351;52.408;16.826;2024-01-07T07:58:08;13.00;;;7.60;;
26435;SDS011;15351;52.408;16.826;2024-01-07T08:00:53;11.30;;;7.70;;
26435;SDS011;15351;52.408;16.826;2024-01-07T08:03:38;12.80;;;8.50;;
26435;SDS011;15351;52.408;16.826;2024-01-07T08:06:11;12.80;;;8.10;;
26435;SDS011;15351;52.408;16.826;2024-01-07T08:08:53;11.60;;;7.90;;
26435;SDS011;15351;52.408;16.826;2024-01-07T08:11:21;11.50;;;8.10;;
26435;SDS011;15351;52.408;16.826;2024-01-07T08:14:04;12.70;;;8.70;;
26435;SDS011;15351;52.408;16.826;2024-01-07T08:16:33;14.20;;;8.90;;
26435;SDS011;15351;52.408;16.826;2024-01-07T08:19:03;12.50;;;8.00;;
26435;SDS011;15351;52.408;16.826;2024-01-07T08:21:34;11.60;;;7.30;;
26435;SDS011;15351;52.408;16.826;2024-01-07T08:24:08;11.70;;;8.00;;
26435;SDS011;15351;52.408;16.826;2024-01-07T08:26:46;12.20;;;7.90;;
26435;SDS011;15351;52.408;16.826;2024-01-07T08:29:23;12.00;;;8.10;;
26435;SDS011;15351;52.408;16.826;2024-01-07T08:31:50;11.60;;;8.60;;
26435;SDS011;15351;52.408;16.826;2024-01-07T08:34:19;12.70;;;8.70;;
26435;SDS011;15351;52.408;16.826;2024-01-07T08:36:46;12.10;;;8.60;;
26435;SDS011;15351;52.408;16.826;2024-01-07T08:39:15;13.30;;;9.00;;
26435;SDS011;15351;52.408;16.826;2024-01-07T08:41:42;15.00;;;9.50;;
26435;SDS011;15351;52.408;16.826;2024-01-07T08:44:11;13.30;;;8.10;;
26435;SDS011;15351;52.408;16.826;2024-01-07T08:46:38;11.10;;;7.30;;
26435;SDS011;15351;52.408;16.826;2024-01-07T08:49:18;11.40;;;7.70;;
26435;SDS011;15351;52.408;16.826;2024-01-07T08:51:50;11.70;;;7.70;;
26435;SDS011;15351;52.408;16.826;2024-01-07T08:54:18;10.60;;;7.40;;
26435;SDS011;15351;52.408;16.826;2024-01-07T08:56:46;11.20;;;8.20;;
26435;SDS011;15351;52.408;16.826;2024-01-07T08:59:15;12.40;;;8.20;;
26435;SDS011;15351;52.408;16.826;2024-01-07T09:01:43;11.00;;;7.40;;
26435;SDS011;15351;52.408;16.826;2024-01-07T09:04:12;8.90;;;6.50;;
26435;SDS011;15351;52.408;16.826;2024-01-07T09:06:39;9.10;;;6.40;;
26435;SDS011;15351;52.408;16.826;2024-01-07T09:09:07;10.10;;;6.70;;
26435;SDS011;15351;52.408;16.826;2024-01-07T09:11:35;9.60;;;6.90;;
26435;SDS011;15351;52.408;16.826;2024-01-07T09:14:02;9.90;;;7.00;;
26435;SDS011;15351;52.408;16.826;2024-01-07T09:16:30;11.20;;;7.30;;
26435;SDS011;15351;52.408;16.826;2024-01-07T09:18:57;11.10;;;7.10;;
26435;SDS011;15351;52.408;16.826;2024-01-07T09:21:25;11.50;;;7.50;;
26435;SDS011;15351;52.408;16.826;2024-01-07T09:23:53;11.00;;;7.60;;
26435;SDS011;15351;52.408;16.826;2024-01-07T09:26:21;11.10;;;7.40;;
26435;SDS011;15351;52.408;16.826;2024-01-07T09:28:49;10.50;;;7.80;;
26435;SDS011;15351;52.408;16.826;2024-01-07T09:31:16;11.20;;;7.50;;
26435;SDS011;15351;52.408;16.826;2024-01-07T09:33:48;10.10;;;6.90;;
26435;SDS011;15351;52.408;16.826;2024-01-07T09:36:15;9.60;;;7.00;;
26435;SDS011;15351;52.408;16.826;2024-01-07T09:38:43;9.60;;;7.10;;
26435;SDS011;15351;52.408;16.826;2024-01-07T09:41:11;10.60;;;7.30;;
26435;SDS011;15351;52.408;16.826;2024-01-07T09:43:41;10.00;;;7.20;;
26435;SDS011;15351;52.408;16.826;2024-01-07T09:46:09;10.30;;;7.60;;
26435;SDS011;15351;52.408;16.826;2024-01-07T09:48:38;12.70;;;8.30;;
26435;SDS011;15351;52.408;16.826;2024-01-07T09:51:06;11.10;;;7.60;;
26435;SDS011;15351;52.408;16.826;2024-01-07T09:53:42;10.50;;;7.60;;
26435;SDS011;15351;52.408;16.826;2024-01-07T09:56:20;11.80;;;8.10;;
26435;SDS011;15351;52.408;16.826;2024-01-07T09:58:51;11.60;;;7.70;;
26435;SDS011;15351;52.408;16.826;2024-01-07T10:01:19;12.90;;;8.00;;
26435;SDS011;15351;52.408;16.826;2024-01-07T10:03:47;12.10;;;8.30;;
26435;SDS011;15351;52.408;16.826;2024-01-07T10:06:17;12.40;;;7.90;;
26435;SDS011;15351;52.408;16.826;2024-01-07T10:08:46;11.40;;;8.10;;
26435;SDS011;15351;52.408;16.826;2024-01-07T10:11:16;11.30;;;7.90;;
26435;SDS011;15351;52.408;16.826;2024-01-07T10:14:06;10.50;;;7.70;;
26435;SDS011;15351;52.408;16.826;2024-01-07T10:16:33;11.20;;;8.00;;
26435;SDS011;15351;52.408;16.826;2024-01-07T10:19:01;10.40;;;7.20;;
26435;SDS011;15351;52.408;16.826;2024-01-07T10:21:28;13.00;;;7.80;;
26435;SDS011;15351;52.408;16.826;2024-01-07T10:24:08;10.50;;;7.10;;
26435;SDS011;15351;52.408;16.826;2024-01-07T10:26:37;11.50;;;7.70;;
26435;SDS011;15351;52.408;16.826;2024-01-07T10:29:05;11.30;;;7.70;;
26435;SDS011;15351;52.408;16.826;2024-01-07T10:31:32;13.00;;;7.80;;
26435;SDS011;15351;52.408;16.826;2024-01-07T10:34:01;12.00;;;8.10;;
26435;SDS011;15351;52.408;16.826;2024-01-07T10:36:29;10.60;;;6.90;;
26435;SDS011;15351;52.408;16.826;2024-01-07T10:38:58;11.60;;;7.10;;
26435;SDS011;15351;52.408;16.826;2024-01-07T10:41:25;9.70;;;6.50;;
26435;SDS011;15351;52.408;16.826;2024-01-07T10:43:57;9.40;;;6.70;;
26435;SDS011;15351;52.408;16.826;2024-01-07T10:46:28;10.00;;;6.60;;
26435;SDS011;15351;52.408;16.826;2024-01-07T10:49:00;9.60;;;6.60;;
26435;SDS011;15351;52.408;16.826;2024-01-07T10:52:02;10.80;;;6.70;;
26435;SDS011;15351;52.408;16.826;2024-01-07T10:54:56;12.00;;;7.70;;
26435;SDS011;15351;52.408;16.826;2024-01-07T10:57:42;12.00;;;7.40;;
26435;SDS011;15351;52.408;16.826;2024-01-07T11:00:16;12.50;;;7.10;;
26435;SDS011;15351;52.408;16.826;2024-01-07T11:03:05;9.70;;;7.10;;
26435;SDS011;15351;52.408;16.826;2024-01-07T11:05:44;10.90;;;7.60;;
26435;SDS011;15351;52.408;16.826;2024-01-07T11:08:18;9.80;;;6.70;;
26435;SDS011;15351;52.408;16.826;2024-01-07T11:10:55;11.60;;;7.90;;
26435;SDS011;15351;52.408;16.826;2024-01-07T11:13:33;12.20;;;8.10;;
26435;SDS011;15351;52.408;16.826;2024-01-07T11:16:02;12.60;;;7.40;;
26435;SDS011;15351;52.408;16.826;2024-01-07T11:18:39;10.50;;;7.80;;
26435;SDS011;15351;52.408;16.826;2024-01-07T11:21:15;12.70;;;7.40;;
26435;SDS011;15351;52.408;16.826;2024-01-07T11:23:48;11.00;;;7.10;;
26435;SDS011;15351;52.408;16.826;2024-01-07T11:26:15;12.40;;;7.60;;
26435;SDS011;15351;52.408;16.826;2024-01-07T11:28:44;12.70;;;8.20;;
26435;SDS011;15351;52.408;16.826;2024-01-07T11:31:12;11.40;;;7.70;;
26435;SDS011;15351;52.408;16.826;2024-01-07T11:33:44;12.90;;;8.10;;
26435;SDS011;15351;52.408;16.826;2024-01-07T11:36:16;11.30;;;7.60;;
26435;SDS011;15351;52.408;16.826;2024-01-07T11:38:48;11.50;;;7.70;;
26435;SDS011;15351;52.408;16.826;2024-01-07T11:41:16;12.40;;;7.80;;
26435;SDS011;15351;52.408;16.826;2024-01-07T11:43:57;12.20;;;8.00;;
26435;SDS011;15351;52.408;16.826;2024-01-07T11:46:29;12.20;;;7.90;;
26435;SDS011;15351;52.408;16.826;2024-01-07T11:48:59;11.40;;;7.90;;
26435;SDS011;15351;52.408;16.826;2024-01-07T11:51:28;12.10;;;8.00;;
26435;SDS011;15351;52.408;16.826;2024-01-07T11:54:00;10.90;;;7.20;;
26435;SDS011;15351;52.408;16.826;2024-01-07T11:56:28;13.40;;;8.10;;
26435;SDS011;15351;52.408;16.826;2024-01-07T11:58:56;12.50;;;8.50;;
26435;SDS011;15351;52.408;16.826;2024-01-07T12:01:24;13.10;;;8.50;;
26435;SDS011;15351;52.408;16.826;2024-01-07T12:03:55;12.90;;;8.60;;
26435;SDS011;15351;52.408;16.826;2024-01-07T12:06:22;14.10;;;9.20;;
26435;SDS011;15351;52.408;16.826;2024-01-07T12:08:49;15.90;;;10.10;;
26435;SDS011;15351;52.408;16.826;2024-01-07T12:11:18;13.70;;;9.30;;
26435;SDS011;15351;52.408;16.826;2024-01-07T12:13:45;14.60;;;8.90;;
26435;SDS011;15351;52.408;16.826;2024-01-07T12:16:16;13.90;;;8.60;;
26435;SDS011;15351;52.408;16.826;2024-01-07T12:18:48;13.40;;;8.30;;
26435;SDS011;15351;52.408;16.826;2024-01-07T12:21:18;12.90;;;8.30;;
26435;SDS011;15351;52.408;16.826;2024-01-07T12:24:06;12.90;;;8.20;;
26435;SDS011;15351;52.408;16.826;2024-01-07T12:26:36;12.30;;;8.30;;
26435;SDS011;15351;52.408;16.826;2024-01-07T12:29:15;14.50;;;8.50;;
26435;SDS011;15351;52.408;16.826;2024-01-07T12:31:44;13.90;;;9.10;;
26435;SDS011;15351;52.408;16.826;2024-01-07T12:34:13;17.10;;;10.30;;
26435;SDS011;15351;52.408;16.826;2024-01-07T12:36:42;14.30;;;9.00;;
26435;SDS011;15351;52.408;16.826;2024-01-07T12:39:10;12.60;;;8.10;;
26435;SDS011;15351;52.408;16.826;2024-01-07T12:41:37;13.50;;;8.80;;
26435;SDS011;15351;52.408;16.826;2024-01-07T12:44:04;13.50;;;8.10;;
26435;SDS011;15351;52.408;16.826;2024-01-07T12:47:01;13.20;;;8.50;;
26435;SDS011;15351;52.408;16.826;2024-01-07T12:49:30;13.00;;;8.50;;
26435;SDS011;15351;52.408;16.826;2024-01-07T12:51:59;14.30;;;8.70;;
26435;SDS011;15351;52.408;16.826;2024-01-07T12:54:30;14.60;;;9.10;;
26435;SDS011;15351;52.408;16.826;2024-01-07T12:56:58;14.40;;;8.40;;
26435;SDS011;15351;52.408;16.826;2024-01-07T12:59:25;14.50;;;8.80;;
26435;SDS011;15351;52.408;16.826;2024-01-07T13:01:53;13.50;;;8.80;;
26435;SDS011;15351;52.408;16.826;2024-01-07T13:04:22;14.80;;;8.80;;
26435;SDS011;15351;52.408;16.826;2024-01-07T13:06:50;15.20;;;9.10;;
26435;SDS011;15351;52.408;16.826;2024-01-07T13:09:17;16.40;;;9.10;;
26435;SDS011;15351;52.408;16.826;2024-01-07T13:11:44;15.10;;;9.30;;
26435;SDS011;15351;52.408;16.826;2024-01-07T13:14:11;14.80;;;9.20;;
26435;SDS011;15351;52.408;16.826;2024-01-07T13:16:40;15.00;;;9.20;;
26435;SDS011;15351;52.408;16.826;2024-01-07T13:19:08;13.90;;;9.10;;
26435;SDS011;15351;52.408;16.826;2024-01-07T13:21:38;15.00;;;10.20;;
26435;SDS011;15351;52.408;16.826;2024-01-07T13:24:07;16.40;;;10.10;;
26435;SDS011;15351;52.408;16.826;2024-01-07T13:26:37;15.60;;;9.60;;
26435;SDS011;15351;52.408;16.826;2024-01-07T13:29:08;14.20;;;9.10;;
26435;SDS011;15351;52.408;16.826;2024-01-07T13:31:36;15.30;;;9.20;;
26435;SDS011;15351;52.408;16.826;2024-01-07T13:34:03;15.30;;;9.50;;
26435;SDS011;15351;52.408;16.826;2024-01-07T13:36:32;16.50;;;9.30;;
26435;SDS011;15351;52.408;16.826;2024-01-07T13:39:00;18.20;;;10.90;;
26435;SDS011;15351;52.408;16.826;2024-01-07T13:41:28;20.20;;;11.70;;
26435;SDS011;15351;52.408;16.826;2024-01-07T13:44:00;16.20;;;10.20;;
26435;SDS011;15351;52.408;16.826;2024-01-07T13:46:53;17.50;;;10.10;;
26435;SDS011;15351;52.408;16.826;2024-01-07T13:49:30;18.50;;;10.70;;
26435;SDS011;15351;52.408;16.826;2024-01-07T13:52:14;19.80;;;11.80;;
26435;SDS011;15351;52.408;16.826;2024-01-07T13:55:15;15.10;;;9.90;;
26435;SDS011;15351;52.408;16.826;2024-01-07T13:57:51;16.60;;;9.90;;
26435;SDS011;15351;52.408;16.826;2024-01-07T14:00:34;16.20;;;10.10;;
26435;SDS011;15351;52.408;16.826;2024-01-07T14:03:29;15.40;;;9.60;;
26435;SDS011;15351;52.408;16.826;2024-01-07T14:06:21;14.90;;;9.90;;
26435;SDS011;15351;52.408;16.826;2024-01-07T14:09:05;17.90;;;10.40;;
26435;SDS011;15351;52.408;16.826;2024-01-07T14:11:53;18.50;;;11.50;;
26435;SDS011;15351;52.408;16.826;2024-01-07T14:14:20;19.50;;;12.20;;
26435;SDS011;15351;52.408;16.826;2024-01-07T14:16:48;18.20;;;11.20;;
26435;SDS011;15351;52.408;16.826;2024-01-07T14:19:19;19.40;;;12.00;;
26435;SDS011;15351;52.408;16.826;2024-01-07T14:24:40;18.80;;;11.50;;
26435;SDS011;15351;52.408;16.826;2024-01-07T14:27:33;19.60;;;12.50;;
26435;SDS011;15351;52.408;16.826;2024-01-07T14:30:03;18.10;;;12.00;;
26435;SDS011;15351;52.408;16.826;2024-01-07T14:32:36;19.00;;;11.60;;
26435;SDS011;15351;52.408;16.826;2024-01-07T14:35:03;19.70;;;12.20;;
26435;SDS011;15351;52.408;16.826;2024-01-07T14:37:40;19.00;;;11.90;;
26435;SDS011;15351;52.408;16.826;2024-01-07T14:40:19;18.10;;;12.00;;
26435;SDS011;15351;52.408;16.826;2024-01-07T14:42:52;21.00;;;12.60;;
26435;SDS011;15351;52.408;16.826;2024-01-07T14:45:27;19.20;;;12.60;;
26435;SDS011;15351;52.408;16.826;2024-01-07T14:48:05;19.00;;;11.80;;
26435;SDS011;15351;52.408;16.826;2024-01-07T14:51:03;20.90;;;12.90;;
26435;SDS011;15351;52.408;16.826;2024-01-07T14:53:42;25.10;;;14.30;;
26435;SDS011;15351;52.408;16.826;2024-01-07T14:56:10;23.70;;;13.90;;
26435;SDS011;15351;52.408;16.826;2024-01-07T14:58:39;23.00;;;13.70;;
26435;SDS011;15351;52.408;16.826;2024-01-07T15:01:07;21.20;;;12.30;;
26435;SDS011;15351;52.408;16.826;2024-01-07T15:03:36;20.00;;;12.70;;
26435;SDS011;15351;52.408;16.826;2024-01-07T15:06:05;19.50;;;12.40;;
26435;SDS011;15351;52.408;16.826;2024-01-07T15:08:35;21.70;;;12.80;;
26435;SDS011;15351;52.408;16.826;2024-01-07T15:11:02;22.80;;;12.80;;
26435;SDS011;15351;52.408;16.826;2024-01-07T15:13:30;21.40;;;13.30;;
26435;SDS011;15351;52.408;16.826;2024-01-07T15:15:59;20.80;;;12.70;;